sensor_id;sensor_type;location;lat;lon;timestamp;P1;durP1;ratioP1;P2;durP2;ratioP2
69594;SDS011;56800;52.142;5.364;2022-12-31T00:02:16;5.47;;;2.10;;
69594;SDS011;56800;52.142;5.364;2022-12-31T00:04:43;4.30;;;1.52;;
69594;SDS011;56800;52.142;5.364;2022-12-31T00:07:10;5.88;;;1.52;;
69594;SDS011;56800;52.142;5.364;2022-12-31T00:09:36;3.22;;;1.83;;
69594;SDS011;56800;52.142;5.364;2022-12-31T00:12:03;3.53;;;2.20;;
69594;SDS011;56800;52.142;5.364;2022-12-31T00:14:30;4.20;;;1.97;;
69594;SDS011;56800;52.142;5.364;2022-12-31T00:16:56;3.80;;;2.35;;
69594;SDS011;56800;52.142;5.364;2022-12-31T00:19:23;4.65;;;2.38;;
69594;SDS011;56800;52.142;5.364;2022-12-31T00:21:50;3.30;;;2.30;;
69594;SDS011;56800;52.142;5.364;2022-12-31T00:24:17;7.90;;;2.70;;
69594;SDS011;56800;52.142;5.364;2022-12-31T00:26:43;4.77;;;2.70;;
69594;SDS011;56800;52.142;5.364;2022-12-31T00:29:10;9.27;;;2.88;;
69594;SDS011;56800;52.142;5.364;2022-12-31T00:31:37;5.07;;;3.30;;
69594;SDS011;56800;52.142;5.364;2022-12-31T00:34:05;5.80;;;2.65;;
69594;SDS011;56800;52.142;5.364;2022-12-31T00:36:33;5.85;;;3.25;;
69594;SDS011;56800;52.142;5.364;2022-12-31T00:39:01;4.17;;;3.03;;
69594;SDS011;56800;52.142;5.364;2022-12-31T00:41:29;5.78;;;3.53;;
69594;SDS011;56800;52.142;5.364;2022-12-31T00:43:56;8.25;;;3.30;;
69594;SDS011;56800;52.142;5.364;2022-12-31T00:46:24;5.45;;;3.15;;
69594;SDS011;56800;52.142;5.364;2022-12-31T00:48:51;8.20;;;3.42;;
69594;SDS011;56800;52.142;5.364;2022-12-31T00:51:20;7.03;;;3.17;;
69594;SDS011;56800;52.142;5.364;2022-12-31T00:53:48;6.35;;;2.70;;
69594;SDS011;56800;52.142;5.364;2022-12-31T00:56:17;4.28;;;2.53;;
69594;SDS011;56800;52.142;5.364;2022-12-31T00:58:45;5.35;;;2.90;;
69594;SDS011;56800;52.142;5.364;2022-12-31T01:03:53;4.97;;;2.37;;
69594;SDS011;56800;52.142;5.364;2022-12-31T01:06:24;3.80;;;2.13;;
69594;SDS011;56800;52.142;5.364;2022-12-31T01:08:51;9.18;;;2.63;;
69594;SDS011;56800;52.142;5.364;2022-12-31T01:11:18;3.67;;;1.90;;
69594;SDS011;56800;52.142;5.364;2022-12-31T01:13:52;9.38;;;1.95;;
69594;SDS011;56800;52.142;5.364;2022-12-31T01:16:28;7.10;;;1.90;;
69594;SDS011;56800;52.142;5.364;2022-12-31T01:19:00;4.20;;;1.70;;
69594;SDS011;56800;52.142;5.364;2022-12-31T01:21:29;4.85;;;1.55;;
69594;SDS011;56800;52.142;5.364;2022-12-31T01:23:57;4.30;;;1.60;;
69594;SDS011;56800;52.142;5.364;2022-12-31T01:26:24;9.23;;;1.80;;
69594;SDS011;56800;52.142;5.364;2022-12-31T01:28:52;7.83;;;2.00;;
69594;SDS011;56800;52.142;5.364;2022-12-31T01:31:19;7.03;;;1.70;;
69594;SDS011;56800;52.142;5.364;2022-12-31T01:33:47;5.65;;;1.83;;
69594;SDS011;56800;52.142;5.364;2022-12-31T01:36:15;6.22;;;1.63;;
69594;SDS011;56800;52.142;5.364;2022-12-31T01:38:50;7.40;;;1.73;;
69594;SDS011;56800;52.142;5.364;2022-12-31T01:41:19;8.03;;;1.90;;
69594;SDS011;56800;52.142;5.364;2022-12-31T01:43:51;5.57;;;1.40;;
69594;SDS011;56800;52.142;5.364;2022-12-31T01:49:09;6.47;;;1.60;;
69594;SDS011;56800;52.142;5.364;2022-12-31T01:51:47;5.85;;;1.92;;
69594;SDS011;56800;52.142;5.364;2022-12-31T01:54:33;6.03;;;1.30;;
69594;SDS011;56800;52.142;5.364;2022-12-31T01:57:03;7.43;;;1.60;;
69594;SDS011;56800;52.142;5.364;2022-12-31T01:59:30;10.73;;;1.38;;
69594;SDS011;56800;52.142;5.364;2022-12-31T02:01:58;9.80;;;1.92;;
69594;SDS011;56800;52.142;5.364;2022-12-31T02:04:26;6.03;;;1.70;;
69594;SDS011;56800;52.142;5.364;2022-12-31T02:06:55;5.57;;;2.10;;
69594;SDS011;56800;52.142;5.364;2022-12-31T02:09:30;6.80;;;1.85;;
69594;SDS011;56800;52.142;5.364;2022-12-31T02:11:57;6.97;;;2.05;;
69594;SDS011;56800;52.142;5.364;2022-12-31T02:14:30;8.38;;;2.33;;
69594;SDS011;56800;52.142;5.364;2022-12-31T02:22:16;6.95;;;2.05;;
69594;SDS011;56800;52.142;5.364;2022-12-31T02:25:07;5.40;;;2.17;;
69594;SDS011;56800;52.142;5.364;2022-12-31T02:27:48;5.55;;;2.03;;
69594;SDS011;56800;52.142;5.364;2022-12-31T02:30:24;6.53;;;2.22;;
69594;SDS011;56800;52.142;5.364;2022-12-31T02:33:11;4.13;;;1.87;;
69594;SDS011;56800;52.142;5.364;2022-12-31T02:35:54;5.95;;;1.98;;
69594;SDS011;56800;52.142;5.364;2022-12-31T02:38:25;8.50;;;2.53;;
69594;SDS011;56800;52.142;5.364;2022-12-31T02:40:56;7.80;;;1.95;;
69594;SDS011;56800;52.142;5.364;2022-12-31T02:43:23;4.75;;;2.20;;
69594;SDS011;56800;52.142;5.364;2022-12-31T02:48:52;7.72;;;2.17;;
69594;SDS011;56800;52.142;5.364;2022-12-31T02:51:36;5.78;;;1.92;;
69594;SDS011;56800;52.142;5.364;2022-12-31T02:57:09;5.50;;;1.67;;
69594;SDS011;56800;52.142;5.364;2022-12-31T03:00:04;7.20;;;1.77;;
69594;SDS011;56800;52.142;5.364;2022-12-31T03:02:51;5.43;;;1.30;;
69594;SDS011;56800;52.142;5.364;2022-12-31T03:05:20;3.58;;;1.20;;
69594;SDS011;56800;52.142;5.364;2022-12-31T03:07:49;6.32;;;1.60;;
69594;SDS011;56800;52.142;5.364;2022-12-31T03:10:16;7.90;;;1.58;;
69594;SDS011;56800;52.142;5.364;2022-12-31T03:12:43;3.97;;;1.47;;
69594;SDS011;56800;52.142;5.364;2022-12-31T03:15:35;4.72;;;1.40;;
69594;SDS011;56800;52.142;5.364;2022-12-31T03:18:13;4.55;;;1.45;;
69594;SDS011;56800;52.142;5.364;2022-12-31T03:20:42;7.82;;;1.27;;
69594;SDS011;56800;52.142;5.364;2022-12-31T03:23:40;6.57;;;1.67;;
69594;SDS011;56800;52.142;5.364;2022-12-31T03:26:09;5.57;;;1.40;;
69594;SDS011;56800;52.142;5.364;2022-12-31T03:28:38;7.78;;;1.58;;
69594;SDS011;56800;52.142;5.364;2022-12-31T03:31:06;10.02;;;1.95;;
69594;SDS011;56800;52.142;5.364;2022-12-31T03:33:34;7.65;;;1.38;;
69594;SDS011;56800;52.142;5.364;2022-12-31T03:36:03;6.47;;;1.67;;
69594;SDS011;56800;52.142;5.364;2022-12-31T03:38:32;4.47;;;1.47;;
69594;SDS011;56800;52.142;5.364;2022-12-31T03:40:59;5.13;;;1.60;;
69594;SDS011;56800;52.142;5.364;2022-12-31T03:43:25;3.25;;;1.63;;
69594;SDS011;56800;52.142;5.364;2022-12-31T03:45:52;6.63;;;1.42;;
69594;SDS011;56800;52.142;5.364;2022-12-31T03:48:21;7.97;;;1.40;;
69594;SDS011;56800;52.142;5.364;2022-12-31T03:50:49;5.63;;;1.23;;
69594;SDS011;56800;52.142;5.364;2022-12-31T03:53:16;3.63;;;1.30;;
69594;SDS011;56800;52.142;5.364;2022-12-31T03:55:42;9.02;;;1.42;;
69594;SDS011;56800;52.142;5.364;2022-12-31T03:58:09;9.57;;;1.38;;
69594;SDS011;56800;52.142;5.364;2022-12-31T04:00:36;7.53;;;1.60;;
69594;SDS011;56800;52.142;5.364;2022-12-31T04:03:03;6.67;;;1.23;;
69594;SDS011;56800;52.142;5.364;2022-12-31T04:05:29;5.97;;;1.73;;
69594;SDS011;56800;52.142;5.364;2022-12-31T04:07:56;6.40;;;1.40;;
69594;SDS011;56800;52.142;5.364;2022-12-31T04:10:23;8.48;;;1.38;;
69594;SDS011;56800;52.142;5.364;2022-12-31T04:12:49;6.78;;;1.40;;
69594;SDS011;56800;52.142;5.364;2022-12-31T04:15:17;5.00;;;1.30;;
69594;SDS011;56800;52.142;5.364;2022-12-31T04:17:45;3.22;;;1.33;;
69594;SDS011;56800;52.142;5.364;2022-12-31T04:20:12;5.60;;;1.40;;
69594;SDS011;56800;52.142;5.364;2022-12-31T04:22:39;3.50;;;1.10;;
69594;SDS011;56800;52.142;5.364;2022-12-31T04:25:06;4.60;;;1.30;;
69594;SDS011;56800;52.142;5.364;2022-12-31T04:27:39;4.23;;;1.30;;
69594;SDS011;56800;52.142;5.364;2022-12-31T04:30:09;6.30;;;1.58;;
69594;SDS011;56800;52.142;5.364;2022-12-31T04:32:36;6.97;;;1.60;;
69594;SDS011;56800;52.142;5.364;2022-12-31T04:35:03;3.70;;;1.33;;
69594;SDS011;56800;52.142;5.364;2022-12-31T04:37:30;4.65;;;1.77;;
69594;SDS011;56800;52.142;5.364;2022-12-31T04:39:57;5.30;;;1.60;;
69594;SDS011;56800;52.142;5.364;2022-12-31T04:42:30;6.38;;;1.98;;
69594;SDS011;56800;52.142;5.364;2022-12-31T04:44:57;3.20;;;1.77;;
69594;SDS011;56800;52.142;5.364;2022-12-31T04:47:24;6.35;;;1.60;;
69594;SDS011;56800;52.142;5.364;2022-12-31T04:49:50;4.07;;;1.85;;
69594;SDS011;56800;52.142;5.364;2022-12-31T04:52:17;5.37;;;2.07;;
69594;SDS011;56800;52.142;5.364;2022-12-31T04:54:43;3.75;;;2.10;;
69594;SDS011;56800;52.142;5.364;2022-12-31T04:57:10;9.32;;;2.45;;
69594;SDS011;56800;52.142;5.364;2022-12-31T04:59:37;3.53;;;2.28;;
69594;SDS011;56800;52.142;5.364;2022-12-31T05:02:03;3.70;;;2.80;;
69594;SDS011;56800;52.142;5.364;2022-12-31T05:04:30;7.40;;;2.90;;
69594;SDS011;56800;52.142;5.364;2022-12-31T05:06:57;5.20;;;2.90;;
69594;SDS011;56800;52.142;5.364;2022-12-31T05:09:24;6.05;;;3.25;;
69594;SDS011;56800;52.142;5.364;2022-12-31T05:11:52;5.53;;;3.00;;
69594;SDS011;56800;52.142;5.364;2022-12-31T05:14:19;4.60;;;2.95;;
69594;SDS011;56800;52.142;5.364;2022-12-31T05:16:45;3.70;;;2.70;;
69594;SDS011;56800;52.142;5.364;2022-12-31T05:19:12;5.40;;;2.85;;
69594;SDS011;56800;52.142;5.364;2022-12-31T05:21:39;4.13;;;2.67;;
69594;SDS011;56800;52.142;5.364;2022-12-31T05:24:06;3.67;;;2.20;;
69594;SDS011;56800;52.142;5.364;2022-12-31T05:26:33;2.90;;;2.13;;
69594;SDS011;56800;52.142;5.364;2022-12-31T05:29:00;5.50;;;2.20;;
69594;SDS011;56800;52.142;5.364;2022-12-31T05:31:26;4.85;;;1.85;;
69594;SDS011;56800;52.142;5.364;2022-12-31T05:33:53;2.58;;;1.98;;
69594;SDS011;56800;52.142;5.364;2022-12-31T05:36:19;4.80;;;2.17;;
69594;SDS011;56800;52.142;5.364;2022-12-31T05:38:46;5.10;;;2.25;;
69594;SDS011;56800;52.142;5.364;2022-12-31T05:41:13;2.90;;;2.13;;
69594;SDS011;56800;52.142;5.364;2022-12-31T05:43:39;2.92;;;2.08;;
69594;SDS011;56800;52.142;5.364;2022-12-31T05:46:06;2.90;;;2.10;;
69594;SDS011;56800;52.142;5.364;2022-12-31T05:48:33;3.70;;;2.55;;
69594;SDS011;56800;52.142;5.364;2022-12-31T05:50:59;3.80;;;2.10;;
69594;SDS011;56800;52.142;5.364;2022-12-31T05:53:26;4.77;;;2.47;;
69594;SDS011;56800;52.142;5.364;2022-12-31T05:55:53;6.85;;;2.22;;
69594;SDS011;56800;52.142;5.364;2022-12-31T05:58:19;3.97;;;2.60;;
69594;SDS011;56800;52.142;5.364;2022-12-31T06:00:46;3.97;;;2.13;;
69594;SDS011;56800;52.142;5.364;2022-12-31T06:03:13;3.40;;;2.20;;
69594;SDS011;56800;52.142;5.364;2022-12-31T06:05:40;2.80;;;2.20;;
69594;SDS011;56800;52.142;5.364;2022-12-31T06:08:08;3.00;;;2.13;;
69594;SDS011;56800;52.142;5.364;2022-12-31T06:10:36;3.67;;;2.30;;
69594;SDS011;56800;52.142;5.364;2022-12-31T06:13:02;2.72;;;1.80;;
69594;SDS011;56800;52.142;5.364;2022-12-31T06:15:29;3.63;;;2.30;;
69594;SDS011;56800;52.142;5.364;2022-12-31T06:17:56;2.93;;;1.90;;
69594;SDS011;56800;52.142;5.364;2022-12-31T06:20:23;6.20;;;1.90;;
69594;SDS011;56800;52.142;5.364;2022-12-31T06:22:49;9.55;;;2.22;;
69594;SDS011;56800;52.142;5.364;2022-12-31T06:25:16;4.72;;;1.92;;
69594;SDS011;56800;52.142;5.364;2022-12-31T06:27:43;3.97;;;2.00;;
69594;SDS011;56800;52.142;5.364;2022-12-31T06:30:09;3.63;;;2.23;;
69594;SDS011;56800;52.142;5.364;2022-12-31T06:32:36;9.50;;;2.90;;
69594;SDS011;56800;52.142;5.364;2022-12-31T06:35:04;5.45;;;2.90;;
69594;SDS011;56800;52.142;5.364;2022-12-31T06:37:31;6.05;;;3.63;;
69594;SDS011;56800;52.142;5.364;2022-12-31T06:39:58;5.15;;;3.75;;
69594;SDS011;56800;52.142;5.364;2022-12-31T06:42:28;6.67;;;4.27;;
69594;SDS011;56800;52.142;5.364;2022-12-31T06:44:58;6.28;;;4.47;;
69594;SDS011;56800;52.142;5.364;2022-12-31T06:47:25;6.15;;;4.15;;
69594;SDS011;56800;52.142;5.364;2022-12-31T06:49:51;5.85;;;3.70;;
69594;SDS011;56800;52.142;5.364;2022-12-31T06:52:18;4.97;;;3.55;;
69594;SDS011;56800;52.142;5.364;2022-12-31T06:54:45;3.97;;;2.97;;
69594;SDS011;56800;52.142;5.364;2022-12-31T06:57:13;5.82;;;3.47;;
69594;SDS011;56800;52.142;5.364;2022-12-31T06:59:40;8.05;;;4.07;;
69594;SDS011;56800;52.142;5.364;2022-12-31T07:07:15;6.53;;;3.10;;
69594;SDS011;56800;52.142;5.364;2022-12-31T07:10:06;3.92;;;2.63;;
69594;SDS011;56800;52.142;5.364;2022-12-31T07:12:59;3.42;;;2.03;;
69594;SDS011;56800;52.142;5.364;2022-12-31T07:15:35;4.97;;;2.03;;
69594;SDS011;56800;52.142;5.364;2022-12-31T07:20:58;3.90;;;1.70;;
69594;SDS011;56800;52.142;5.364;2022-12-31T07:23:25;3.47;;;1.73;;
69594;SDS011;56800;52.142;5.364;2022-12-31T07:26:40;2.17;;;1.30;;
69594;SDS011;56800;52.142;5.364;2022-12-31T07:28:50;5.50;;;1.50;;
69594;SDS011;56800;52.142;5.364;2022-12-31T07:31:49;2.70;;;1.30;;
69594;SDS011;56800;52.142;5.364;2022-12-31T07:34:51;2.43;;;0.90;;
69594;SDS011;56800;52.142;5.364;2022-12-31T07:45:16;1.42;;;0.82;;
69594;SDS011;56800;52.142;5.364;2022-12-31T07:47:48;2.10;;;0.90;;
69594;SDS011;56800;52.142;5.364;2022-12-31T07:50:16;2.95;;;0.70;;
69594;SDS011;56800;52.142;5.364;2022-12-31T07:52:44;3.50;;;1.00;;
69594;SDS011;56800;52.142;5.364;2022-12-31T07:55:11;1.02;;;0.80;;
69594;SDS011;56800;52.142;5.364;2022-12-31T07:57:44;3.80;;;0.90;;
69594;SDS011;56800;52.142;5.364;2022-12-31T08:00:20;1.87;;;0.80;;
69594;SDS011;56800;52.142;5.364;2022-12-31T08:05:31;4.80;;;1.10;;
69594;SDS011;56800;52.142;5.364;2022-12-31T08:11:13;1.85;;;1.02;;
69594;SDS011;56800;52.142;5.364;2022-12-31T08:13:43;1.83;;;0.90;;
69594;SDS011;56800;52.142;5.364;2022-12-31T08:16:12;1.92;;;0.95;;
69594;SDS011;56800;52.142;5.364;2022-12-31T08:18:39;5.05;;;1.10;;
69594;SDS011;56800;52.142;5.364;2022-12-31T08:23:52;3.33;;;0.80;;
69594;SDS011;56800;52.142;5.364;2022-12-31T08:26:34;3.33;;;1.00;;
69594;SDS011;56800;52.142;5.364;2022-12-31T08:31:57;1.85;;;0.90;;
69594;SDS011;56800;52.142;5.364;2022-12-31T08:37:31;1.52;;;1.00;;
69594;SDS011;56800;52.142;5.364;2022-12-31T08:40:16;7.27;;;1.20;;
69594;SDS011;56800;52.142;5.364;2022-12-31T08:45:51;8.27;;;1.30;;
69594;SDS011;56800;52.142;5.364;2022-12-31T08:50:52;5.43;;;1.10;;
69594;SDS011;56800;52.142;5.364;2022-12-31T08:53:19;1.93;;;0.90;;
69594;SDS011;56800;52.142;5.364;2022-12-31T08:55:46;2.75;;;0.88;;
69594;SDS011;56800;52.142;5.364;2022-12-31T08:58:33;8.30;;;1.40;;
69594;SDS011;56800;52.142;5.364;2022-12-31T09:01:08;2.55;;;1.17;;
69594;SDS011;56800;52.142;5.364;2022-12-31T09:03:44;2.97;;;1.02;;
69594;SDS011;56800;52.142;5.364;2022-12-31T09:06:35;3.10;;;1.07;;
69594;SDS011;56800;52.142;5.364;2022-12-31T09:09:15;3.00;;;1.40;;
69594;SDS011;56800;52.142;5.364;2022-12-31T09:18:08;4.53;;;1.15;;
69594;SDS011;56800;52.142;5.364;2022-12-31T09:20:19;5.07;;;1.30;;
69594;SDS011;56800;52.142;5.364;2022-12-31T09:23:07;3.95;;;1.25;;
69594;SDS011;56800;52.142;5.364;2022-12-31T09:25:36;5.93;;;1.25;;
69594;SDS011;56800;52.142;5.364;2022-12-31T09:33:39;3.60;;;1.20;;
69594;SDS011;56800;52.142;5.364;2022-12-31T09:36:14;4.50;;;1.17;;
69594;SDS011;56800;52.142;5.364;2022-12-31T09:39:02;4.78;;;1.10;;
69594;SDS011;56800;52.142;5.364;2022-12-31T09:50:17;4.03;;;1.15;;
69594;SDS011;56800;52.142;5.364;2022-12-31T09:55:44;4.97;;;1.30;;
69594;SDS011;56800;52.142;5.364;2022-12-31T09:58:56;4.80;;;1.48;;
69594;SDS011;56800;52.142;5.364;2022-12-31T10:01:52;6.13;;;1.67;;
69594;SDS011;56800;52.142;5.364;2022-12-31T10:04:47;5.28;;;1.73;;
69594;SDS011;56800;52.142;5.364;2022-12-31T10:07:20;4.47;;;1.80;;
69594;SDS011;56800;52.142;5.364;2022-12-31T10:18:06;4.65;;;1.75;;
69594;SDS011;56800;52.142;5.364;2022-12-31T10:26:56;6.15;;;1.42;;
69594;SDS011;56800;52.142;5.364;2022-12-31T10:32:14;3.28;;;1.33;;
69594;SDS011;56800;52.142;5.364;2022-12-31T10:52:32;5.47;;;1.60;;
69594;SDS011;56800;52.142;5.364;2022-12-31T10:58:04;3.70;;;1.80;;
69594;SDS011;56800;52.142;5.364;2022-12-31T11:01:00;6.45;;;1.60;;
69594;SDS011;56800;52.142;5.364;2022-12-31T11:10:07;6.60;;;2.00;;
69594;SDS011;56800;52.142;5.364;2022-12-31T11:15:33;8.98;;;2.03;;
69594;SDS011;56800;52.142;5.364;2022-12-31T11:18:26;6.95;;;1.73;;
69594;SDS011;56800;52.142;5.364;2022-12-31T11:21:20;7.05;;;1.98;;
69594;SDS011;56800;52.142;5.364;2022-12-31T11:27:03;7.57;;;2.37;;
69594;SDS011;56800;52.142;5.364;2022-12-31T11:30:23;11.07;;;1.90;;
69594;SDS011;56800;52.142;5.364;2022-12-31T11:32:54;12.88;;;2.15;;
69594;SDS011;56800;52.142;5.364;2022-12-31T11:38:27;10.35;;;2.22;;
69594;SDS011;56800;52.142;5.364;2022-12-31T11:50:02;9.55;;;2.65;;
69594;SDS011;56800;52.142;5.364;2022-12-31T11:53:05;7.95;;;2.47;;
69594;SDS011;56800;52.142;5.364;2022-12-31T11:55:57;10.27;;;2.60;;
69594;SDS011;56800;52.142;5.364;2022-12-31T11:58:49;7.28;;;2.10;;
69594;SDS011;56800;52.142;5.364;2022-12-31T12:02:03;5.25;;;2.15;;
69594;SDS011;56800;52.142;5.364;2022-12-31T12:04:22;7.47;;;2.03;;
69594;SDS011;56800;52.142;5.364;2022-12-31T12:06:49;7.70;;;2.15;;
69594;SDS011;56800;52.142;5.364;2022-12-31T12:09:30;8.00;;;2.03;;
69594;SDS011;56800;52.142;5.364;2022-12-31T12:12:00;7.25;;;1.83;;
69594;SDS011;56800;52.142;5.364;2022-12-31T12:14:32;7.40;;;1.83;;
69594;SDS011;56800;52.142;5.364;2022-12-31T12:17:08;6.50;;;1.65;;
69594;SDS011;56800;52.142;5.364;2022-12-31T12:19:42;6.20;;;1.67;;
69594;SDS011;56800;52.142;5.364;2022-12-31T12:22:17;5.60;;;1.60;;
69594;SDS011;56800;52.142;5.364;2022-12-31T12:24:51;8.65;;;2.03;;
69594;SDS011;56800;52.142;5.364;2022-12-31T12:27:31;5.63;;;1.95;;
69594;SDS011;56800;52.142;5.364;2022-12-31T12:32:56;5.47;;;1.73;;
69594;SDS011;56800;52.142;5.364;2022-12-31T12:35:30;9.57;;;1.80;;
69594;SDS011;56800;52.142;5.364;2022-12-31T12:38:06;7.97;;;1.70;;
69594;SDS011;56800;52.142;5.364;2022-12-31T12:40:39;7.85;;;1.65;;
69594;SDS011;56800;52.142;5.364;2022-12-31T12:43:16;5.57;;;1.65;;
69594;SDS011;56800;52.142;5.364;2022-12-31T12:45:48;5.07;;;1.60;;
69594;SDS011;56800;52.142;5.364;2022-12-31T12:48:29;7.87;;;1.93;;
69594;SDS011;56800;52.142;5.364;2022-12-31T12:54:23;8.40;;;5.63;;
69594;SDS011;56800;52.142;5.364;2022-12-31T13:00:36;7.47;;;2.13;;
69594;SDS011;56800;52.142;5.364;2022-12-31T13:14:22;7.72;;;2.50;;
69594;SDS011;56800;52.142;5.364;2022-12-31T13:17:00;7.60;;;2.00;;
69594;SDS011;56800;52.142;5.364;2022-12-31T13:19:43;7.10;;;1.90;;
69594;SDS011;56800;52.142;5.364;2022-12-31T13:25:14;6.05;;;1.67;;
69594;SDS011;56800;52.142;5.364;2022-12-31T13:28:07;8.00;;;1.70;;
69594;SDS011;56800;52.142;5.364;2022-12-31T13:30:42;7.60;;;2.20;;
69594;SDS011;56800;52.142;5.364;2022-12-31T13:35:45;7.43;;;1.95;;
69594;SDS011;56800;52.142;5.364;2022-12-31T13:38:19;7.78;;;2.58;;
69594;SDS011;56800;52.142;5.364;2022-12-31T13:43:33;7.53;;;2.45;;
69594;SDS011;56800;52.142;5.364;2022-12-31T13:49:26;6.22;;;2.03;;
69594;SDS011;56800;52.142;5.364;2022-12-31T13:52:15;8.63;;;2.17;;
69594;SDS011;56800;52.142;5.364;2022-12-31T13:57:57;3.42;;;1.75;;
69594;SDS011;56800;52.142;5.364;2022-12-31T14:00:29;6.00;;;1.80;;
69594;SDS011;56800;52.142;5.364;2022-12-31T14:03:09;5.03;;;1.80;;
69594;SDS011;56800;52.142;5.364;2022-12-31T14:06:02;6.90;;;1.63;;
69594;SDS011;56800;52.142;5.364;2022-12-31T14:08:44;5.10;;;1.90;;
69594;SDS011;56800;52.142;5.364;2022-12-31T14:14:21;6.00;;;2.00;;
69594;SDS011;56800;52.142;5.364;2022-12-31T14:16:57;7.93;;;2.00;;
69594;SDS011;56800;52.142;5.364;2022-12-31T14:24:47;6.57;;;1.73;;
69594;SDS011;56800;52.142;5.364;2022-12-31T14:27:18;5.87;;;1.83;;
69594;SDS011;56800;52.142;5.364;2022-12-31T14:29:53;7.65;;;2.45;;
69594;SDS011;56800;52.142;5.364;2022-12-31T14:33:29;10.27;;;2.80;;
69594;SDS011;56800;52.142;5.364;2022-12-31T14:35:38;6.03;;;2.03;;
69594;SDS011;56800;52.142;5.364;2022-12-31T14:41:42;5.83;;;1.70;;
69594;SDS011;56800;52.142;5.364;2022-12-31T14:52:18;5.80;;;1.98;;
69594;SDS011;56800;52.142;5.364;2022-12-31T14:57:44;8.55;;;2.25;;
69594;SDS011;56800;52.142;5.364;2022-12-31T15:03:04;7.25;;;2.25;;
69594;SDS011;56800;52.142;5.364;2022-12-31T15:05:50;10.00;;;2.45;;
69594;SDS011;56800;52.142;5.364;2022-12-31T15:16:54;10.52;;;3.22;;
69594;SDS011;56800;52.142;5.364;2022-12-31T15:22:19;11.20;;;2.60;;
69594;SDS011;56800;52.142;5.364;2022-12-31T15:25:01;9.77;;;2.72;;
69594;SDS011;56800;52.142;5.364;2022-12-31T15:30:03;15.32;;;2.78;;
69594;SDS011;56800;52.142;5.364;2022-12-31T15:32:34;13.00;;;2.78;;
69594;SDS011;56800;52.142;5.364;2022-12-31T15:38:01;14.15;;;2.55;;
69594;SDS011;56800;52.142;5.364;2022-12-31T15:40:46;9.20;;;3.10;;
69594;SDS011;56800;52.142;5.364;2022-12-31T15:43:19;11.65;;;3.28;;
69594;SDS011;56800;52.142;5.364;2022-12-31T15:45:56;12.73;;;2.97;;
69594;SDS011;56800;52.142;5.364;2022-12-31T15:48:25;15.47;;;3.30;;
69594;SDS011;56800;52.142;5.364;2022-12-31T15:50:57;15.10;;;2.97;;
69594;SDS011;56800;52.142;5.364;2022-12-31T15:53:38;14.32;;;3.58;;
69594;SDS011;56800;52.142;5.364;2022-12-31T15:56:14;15.45;;;3.45;;
69594;SDS011;56800;52.142;5.364;2022-12-31T15:58:53;18.65;;;3.05;;
69594;SDS011;56800;52.142;5.364;2022-12-31T16:01:27;10.30;;;2.90;;
69594;SDS011;56800;52.142;5.364;2022-12-31T16:03:57;10.55;;;2.72;;
69594;SDS011;56800;52.142;5.364;2022-12-31T16:06:27;13.30;;;3.03;;
69594;SDS011;56800;52.142;5.364;2022-12-31T16:08:56;11.60;;;3.00;;
69594;SDS011;56800;52.142;5.364;2022-12-31T16:11:23;8.10;;;2.70;;
69594;SDS011;56800;52.142;5.364;2022-12-31T16:13:51;17.00;;;2.93;;
69594;SDS011;56800;52.142;5.364;2022-12-31T16:16:27;12.35;;;3.25;;
69594;SDS011;56800;52.142;5.364;2022-12-31T16:18:55;13.93;;;3.38;;
69594;SDS011;56800;52.142;5.364;2022-12-31T16:21:32;10.48;;;3.10;;
69594;SDS011;56800;52.142;5.364;2022-12-31T16:24:05;12.55;;;3.13;;
69594;SDS011;56800;52.142;5.364;2022-12-31T16:26:52;18.33;;;3.43;;
69594;SDS011;56800;52.142;5.364;2022-12-31T16:29:22;11.07;;;3.67;;
69594;SDS011;56800;52.142;5.364;2022-12-31T16:31:50;12.10;;;3.83;;
69594;SDS011;56800;52.142;5.364;2022-12-31T16:34:19;10.23;;;2.75;;
69594;SDS011;56800;52.142;5.364;2022-12-31T16:37:01;18.08;;;3.80;;
69594;SDS011;56800;52.142;5.364;2022-12-31T16:39:33;14.10;;;3.43;;
69594;SDS011;56800;52.142;5.364;2022-12-31T16:44:39;14.15;;;3.70;;
69594;SDS011;56800;52.142;5.364;2022-12-31T16:47:07;13.25;;;3.30;;
69594;SDS011;56800;52.142;5.364;2022-12-31T16:49:40;13.10;;;3.28;;
69594;SDS011;56800;52.142;5.364;2022-12-31T16:52:14;12.20;;;3.40;;
69594;SDS011;56800;52.142;5.364;2022-12-31T16:55:06;11.77;;;3.42;;
69594;SDS011;56800;52.142;5.364;2022-12-31T16:57:35;11.65;;;3.22;;
69594;SDS011;56800;52.142;5.364;2022-12-31T17:00:03;12.10;;;3.63;;
69594;SDS011;56800;52.142;5.364;2022-12-31T17:02:33;11.88;;;3.60;;
69594;SDS011;56800;52.142;5.364;2022-12-31T17:05:04;14.20;;;2.60;;
69594;SDS011;56800;52.142;5.364;2022-12-31T17:07:44;12.52;;;3.15;;
69594;SDS011;56800;52.142;5.364;2022-12-31T17:10:15;12.68;;;3.25;;
69594;SDS011;56800;52.142;5.364;2022-12-31T17:12:51;10.57;;;3.38;;
69594;SDS011;56800;52.142;5.364;2022-12-31T17:15:43;11.82;;;3.40;;
69594;SDS011;56800;52.142;5.364;2022-12-31T17:18:15;9.63;;;3.43;;
69594;SDS011;56800;52.142;5.364;2022-12-31T17:20:45;12.05;;;3.42;;
69594;SDS011;56800;52.142;5.364;2022-12-31T17:23:30;12.40;;;3.83;;
69594;SDS011;56800;52.142;5.364;2022-12-31T17:25:59;14.13;;;3.58;;
69594;SDS011;56800;52.142;5.364;2022-12-31T17:28:43;11.57;;;3.53;;
69594;SDS011;56800;52.142;5.364;2022-12-31T17:36:37;8.68;;;3.08;;
69594;SDS011;56800;52.142;5.364;2022-12-31T17:39:21;9.63;;;3.28;;
69594;SDS011;56800;52.142;5.364;2022-12-31T17:41:49;12.63;;;3.33;;
69594;SDS011;56800;52.142;5.364;2022-12-31T17:44:19;11.40;;;3.30;;
69594;SDS011;56800;52.142;5.364;2022-12-31T17:46:48;14.75;;;3.38;;
69594;SDS011;56800;52.142;5.364;2022-12-31T17:49:15;9.48;;;3.20;;
69594;SDS011;56800;52.142;5.364;2022-12-31T17:51:42;13.68;;;3.10;;
69594;SDS011;56800;52.142;5.364;2022-12-31T17:54:13;10.48;;;3.00;;
69594;SDS011;56800;52.142;5.364;2022-12-31T17:56:41;9.03;;;2.90;;
69594;SDS011;56800;52.142;5.364;2022-12-31T17:59:10;7.68;;;3.38;;
69594;SDS011;56800;52.142;5.364;2022-12-31T18:01:42;8.50;;;3.17;;
69594;SDS011;56800;52.142;5.364;2022-12-31T18:04:12;12.93;;;3.22;;
69594;SDS011;56800;52.142;5.364;2022-12-31T18:06:40;9.80;;;3.30;;
69594;SDS011;56800;52.142;5.364;2022-12-31T18:09:08;10.37;;;3.27;;
69594;SDS011;56800;52.142;5.364;2022-12-31T18:11:35;12.27;;;3.40;;
69594;SDS011;56800;52.142;5.364;2022-12-31T18:14:03;16.70;;;3.42;;
69594;SDS011;56800;52.142;5.364;2022-12-31T18:16:30;10.43;;;3.75;;
69594;SDS011;56800;52.142;5.364;2022-12-31T18:18:57;12.50;;;3.72;;
69594;SDS011;56800;52.142;5.364;2022-12-31T18:21:27;10.13;;;3.27;;
69594;SDS011;56800;52.142;5.364;2022-12-31T18:23:57;11.68;;;3.33;;
69594;SDS011;56800;52.142;5.364;2022-12-31T18:26:25;13.90;;;3.50;;
69594;SDS011;56800;52.142;5.364;2022-12-31T18:28:52;12.77;;;3.60;;
69594;SDS011;56800;52.142;5.364;2022-12-31T18:31:23;13.48;;;3.78;;
69594;SDS011;56800;52.142;5.364;2022-12-31T18:33:53;9.80;;;3.77;;
69594;SDS011;56800;52.142;5.364;2022-12-31T18:36:22;10.68;;;4.40;;
69594;SDS011;56800;52.142;5.364;2022-12-31T18:38:49;11.82;;;3.60;;
69594;SDS011;56800;52.142;5.364;2022-12-31T18:41:18;13.60;;;4.20;;
69594;SDS011;56800;52.142;5.364;2022-12-31T18:43:46;9.52;;;3.80;;
69594;SDS011;56800;52.142;5.364;2022-12-31T18:46:15;9.50;;;4.37;;
69594;SDS011;56800;52.142;5.364;2022-12-31T18:48:44;12.00;;;3.90;;
69594;SDS011;56800;52.142;5.364;2022-12-31T18:51:12;9.55;;;4.03;;
69594;SDS011;56800;52.142;5.364;2022-12-31T18:53:44;16.50;;;3.72;;
69594;SDS011;56800;52.142;5.364;2022-12-31T18:56:12;13.25;;;3.88;;
69594;SDS011;56800;52.142;5.364;2022-12-31T18:58:41;10.47;;;3.50;;
69594;SDS011;56800;52.142;5.364;2022-12-31T19:04:09;11.27;;;3.75;;
69594;SDS011;56800;52.142;5.364;2022-12-31T19:06:46;11.88;;;4.15;;